Pagrindinis puslapis
METAR-TAF:

METAR-TAF

Oro uostai :

Los Llanos

Albasetė, Ispanija

platuma: 38-57N, ilguma: 001-51W, Aukštis: 702 m

Dabartinis oras

Ataskaita buvo paskelbta 19 minutes, ne 12:00 UTC
Vėjas 4 kt nuo kintamojo kryptimis
Temperatūra 9°C
Drėgmė 87%
Slėgis 1018 hPa
Matomumas 10 km arba daugiau
Mažai debesys ne aukštis 2000 ft
Su prošvaistėmis ne aukštis 4500 ft

METAR: LEAB 251200Z VRB04KT 9999 FEW020 BKN045 09/07 Q1018 NOSIG

Laikas: 13:19 (12:19 UTC)

Prognozė

Ataskaita buvo paskelbta 1 valandą ir 19 minutes, ne 11:00 UTC
Prognozė galioja nuo 25 metu 12 UTC su 25 metu 21 UTC
Vėjas 7 kt iš Pietų/Pietryčių
Matomumas 10 km arba daugiau
Išsisklaidę debesys ne aukštis 2000 ft
Su prošvaistėmis ne aukštis 4000 ft
Tikimybė 40% :
Laikinai
nuo 25 metu 12 UTC su 25 metu 17 UTC
Matomumas: 3000 m
Su prošvaistėmis ne aukštis 1000 ft
Išsisklaidę debesys ne aukštis 3000 ft, aukštai iškilę kamuoliniai debesys.
lietus, lietus

TAF: LEAB 251100Z 2512/2521 16007KT 9999 SCT020 BKN040 PROB40 TEMPO 2512/2517 3000 RA SHRA BKN010 SCT030TCU

Orai ataskaitas ir orų prognozės (METAR, TAF).

turimą stotys yra geltonos ir raudonos taškus žemėlapyje.

Perkelti pele per norėdami pamatyti stoties vardą.

Tada spustelėkite, norėdami matyti oro stebėjimo ir prognozės.

Norėdami pakeisti žemėlapį: spustelėkite ant žalios mygtukų su juodo kryžiaus žemyn,; žalią mygtuką su brūkšneliu, jei norite nutolinti; arba žalių rodyklių gretimoms žemėlapius.


METAR-TAF: